Terminal Aerodrome Forecast
Issued by NWS Corpus Christi, TX

Home | Current Version | Previous Version | Text Only | Print | Product List | Glossary On
Versions: 1 2 3 4 5 6 7 8 9 10 11 12 13 14 15 16 17 18 19 20 21 22
000
FTUS44 KCRP 281120
TAFCRP
TAF
KCRP 281120Z 2812/2912 14015G25KT P6SM BKN012 OVC020
     FM281500 16012G18KT P6SM BKN025
     FM282000 14020G28KT P6SM VCTS BKN035CB OVC250
     FM290300 15015KT P6SM SCT025 OVC040
     FM290800 13007KT P6SM BKN015=

USA.gov is the U.S. government's official web portal to all federal, state and local government web resources and services.